sensor_id;sensor_type;location;lat;lon;timestamp;temperature;humidity
11093;DHT22;5600;50.864;6.102;2024-01-27T00:00:52;2.70;99.90
11093;DHT22;5600;50.864;6.102;2024-01-27T00:03:53;2.40;99.90
11093;DHT22;5600;50.864;6.102;2024-01-27T00:06:54;2.20;99.90
11093;DHT22;5600;50.864;6.102;2024-01-27T00:09:55;2.00;99.90
11093;DHT22;5600;50.864;6.102;2024-01-27T00:12:56;1.90;99.90
11093;DHT22;5600;50.864;6.102;2024-01-27T00:15:58;0.40;99.90
11093;DHT22;5600;50.864;6.102;2024-01-27T00:18:59;1.60;99.90
11093;DHT22;5600;50.864;6.102;2024-01-27T00:21:59;1.50;99.90
11093;DHT22;5600;50.864;6.102;2024-01-27T00:25:00;1.40;99.90
11093;DHT22;5600;50.864;6.102;2024-01-27T00:28:01;1.20;99.90
11093;DHT22;5600;50.864;6.102;2024-01-27T00:31:02;3.10;99.90
11093;DHT22;5600;50.864;6.102;2024-01-27T00:34:03;1.00;99.90
11093;DHT22;5600;50.864;6.102;2024-01-27T00:37:04;0.90;99.90
11093;DHT22;5600;50.864;6.102;2024-01-27T00:40:08;0.80;99.90
11093;DHT22;5600;50.864;6.102;2024-01-27T00:43:09;0.80;99.90
11093;DHT22;5600;50.864;6.102;2024-01-27T00:46:09;0.70;99.90
11093;DHT22;5600;50.864;6.102;2024-01-27T00:49:10;0.70;99.90
11093;DHT22;5600;50.864;6.102;2024-01-27T00:52:11;0.60;99.90
11093;DHT22;5600;50.864;6.102;2024-01-27T00:55:12;0.60;99.90
11093;DHT22;5600;50.864;6.102;2024-01-27T00:58:13;0.50;99.90
11093;DHT22;5600;50.864;6.102;2024-01-27T01:01:14;0.50;99.90
11093;DHT22;5600;50.864;6.102;2024-01-27T01:04:14;0.50;99.90
11093;DHT22;5600;50.864;6.102;2024-01-27T01:07:15;1.50;99.90
11093;DHT22;5600;50.864;6.102;2024-01-27T01:10:16;0.40;99.90
11093;DHT22;5600;50.864;6.102;2024-01-27T01:13:17;0.40;99.90
11093;DHT22;5600;50.864;6.102;2024-01-27T01:16:17;0.30;99.90
11093;DHT22;5600;50.864;6.102;2024-01-27T01:19:18;0.30;99.90
11093;DHT22;5600;50.864;6.102;2024-01-27T01:22:19;0.30;99.90
11093;DHT22;5600;50.864;6.102;2024-01-27T01:25:20;0.20;99.90
11093;DHT22;5600;50.864;6.102;2024-01-27T01:28:21;0.10;99.90
11093;DHT22;5600;50.864;6.102;2024-01-27T01:31:21;0.00;99.90
11093;DHT22;5600;50.864;6.102;2024-01-27T01:34:22;0.00;99.90
11093;DHT22;5600;50.864;6.102;2024-01-27T01:37:23;0.00;99.90
11093;DHT22;5600;50.864;6.102;2024-01-27T01:40:24;0.00;99.90
11093;DHT22;5600;50.864;6.102;2024-01-27T01:43:24;-0.10;99.90
11093;DHT22;5600;50.864;6.102;2024-01-27T01:46:26;-0.10;99.90
11093;DHT22;5600;50.864;6.102;2024-01-27T01:49:27;-0.10;99.90
11093;DHT22;5600;50.864;6.102;2024-01-27T01:52:28;-0.20;99.90
11093;DHT22;5600;50.864;6.102;2024-01-27T01:55:29;-0.20;99.90
11093;DHT22;5600;50.864;6.102;2024-01-27T01:58:30;-0.30;99.90
11093;DHT22;5600;50.864;6.102;2024-01-27T02:01:34;-0.40;99.90
11093;DHT22;5600;50.864;6.102;2024-01-27T02:04:42;-0.40;99.90
11093;DHT22;5600;50.864;6.102;2024-01-27T02:07:43;-1.80;99.90
11093;DHT22;5600;50.864;6.102;2024-01-27T02:10:44;-0.40;99.90
11093;DHT22;5600;50.864;6.102;2024-01-27T02:13:47;-0.40;99.90
11093;DHT22;5600;50.864;6.102;2024-01-27T02:16:48;-0.40;99.90
11093;DHT22;5600;50.864;6.102;2024-01-27T02:19:48;-0.40;99.90
11093;DHT22;5600;50.864;6.102;2024-01-27T02:22:49;-0.40;99.90
11093;DHT22;5600;50.864;6.102;2024-01-27T02:25:50;-0.40;99.90
11093;DHT22;5600;50.864;6.102;2024-01-27T02:28:51;-0.50;99.90
11093;DHT22;5600;50.864;6.102;2024-01-27T02:31:51;-0.50;99.90
11093;DHT22;5600;50.864;6.102;2024-01-27T02:34:52;-0.60;99.90
11093;DHT22;5600;50.864;6.102;2024-01-27T02:37:53;-0.60;99.90
11093;DHT22;5600;50.864;6.102;2024-01-27T02:40:54;-0.60;99.90
11093;DHT22;5600;50.864;6.102;2024-01-27T02:43:54;-0.70;99.90
11093;DHT22;5600;50.864;6.102;2024-01-27T02:46:55;-0.70;99.90
11093;DHT22;5600;50.864;6.102;2024-01-27T02:49:56;-0.60;99.90
11093;DHT22;5600;50.864;6.102;2024-01-27T02:52:57;-0.60;99.90
11093;DHT22;5600;50.864;6.102;2024-01-27T02:55:57;-0.60;99.90
11093;DHT22;5600;50.864;6.102;2024-01-27T02:58:58;-0.60;99.90
11093;DHT22;5600;50.864;6.102;2024-01-27T03:01:59;-0.70;99.90
11093;DHT22;5600;50.864;6.102;2024-01-27T03:05:00;-0.70;99.90
11093;DHT22;5600;50.864;6.102;2024-01-27T03:08:01;-0.70;99.90
11093;DHT22;5600;50.864;6.102;2024-01-27T03:11:01;-0.60;99.90
11093;DHT22;5600;50.864;6.102;2024-01-27T03:14:02;-0.60;99.90
11093;DHT22;5600;50.864;6.102;2024-01-27T03:17:03;-0.70;99.90
11093;DHT22;5600;50.864;6.102;2024-01-27T03:20:05;-0.70;99.90
11093;DHT22;5600;50.864;6.102;2024-01-27T03:23:09;-0.70;99.90
11093;DHT22;5600;50.864;6.102;2024-01-27T03:26:09;-0.80;99.90
11093;DHT22;5600;50.864;6.102;2024-01-27T03:29:11;-0.80;99.90
11093;DHT22;5600;50.864;6.102;2024-01-27T03:32:11;-0.80;99.90
11093;DHT22;5600;50.864;6.102;2024-01-27T03:35:12;-0.90;99.90
11093;DHT22;5600;50.864;6.102;2024-01-27T03:38:13;-0.80;99.90
11093;DHT22;5600;50.864;6.102;2024-01-27T03:41:14;-0.80;99.90
11093;DHT22;5600;50.864;6.102;2024-01-27T03:44:14;-0.80;99.90
11093;DHT22;5600;50.864;6.102;2024-01-27T03:47:15;-0.80;99.90
11093;DHT22;5600;50.864;6.102;2024-01-27T03:50:16;-0.80;99.90
11093;DHT22;5600;50.864;6.102;2024-01-27T03:53:17;-0.80;99.90
11093;DHT22;5600;50.864;6.102;2024-01-27T03:56:17;-0.80;99.90
11093;DHT22;5600;50.864;6.102;2024-01-27T03:59:18;-0.90;99.90
11093;DHT22;5600;50.864;6.102;2024-01-27T04:02:19;-0.90;99.90
11093;DHT22;5600;50.864;6.102;2024-01-27T04:05:20;-0.90;99.90
11093;DHT22;5600;50.864;6.102;2024-01-27T04:08:20;-0.90;99.90
11093;DHT22;5600;50.864;6.102;2024-01-27T04:11:22;-0.90;99.90
11093;DHT22;5600;50.864;6.102;2024-01-27T04:14:22;-0.90;99.90
11093;DHT22;5600;50.864;6.102;2024-01-27T04:17:23;-1.00;99.90
11093;DHT22;5600;50.864;6.102;2024-01-27T04:20:24;-1.00;99.90
11093;DHT22;5600;50.864;6.102;2024-01-27T04:23:25;-1.00;99.90
11093;DHT22;5600;50.864;6.102;2024-01-27T04:26:25;-1.00;99.90
11093;DHT22;5600;50.864;6.102;2024-01-27T04:29:26;-1.00;99.90
11093;DHT22;5600;50.864;6.102;2024-01-27T04:32:27;-1.00;99.90
11093;DHT22;5600;50.864;6.102;2024-01-27T04:35:28;-1.10;99.90
11093;DHT22;5600;50.864;6.102;2024-01-27T04:38:29;-1.00;99.90
11093;DHT22;5600;50.864;6.102;2024-01-27T04:41:30;-1.10;99.90
11093;DHT22;5600;50.864;6.102;2024-01-27T04:44:30;-1.10;99.90
11093;DHT22;5600;50.864;6.102;2024-01-27T04:47:31;-1.10;99.90
11093;DHT22;5600;50.864;6.102;2024-01-27T04:50:32;-1.10;99.90
11093;DHT22;5600;50.864;6.102;2024-01-27T04:53:33;-1.00;99.90
11093;DHT22;5600;50.864;6.102;2024-01-27T04:56:33;-1.10;99.90
11093;DHT22;5600;50.864;6.102;2024-01-27T04:59:34;-1.10;99.90
11093;DHT22;5600;50.864;6.102;2024-01-27T05:02:35;-1.00;99.90
11093;DHT22;5600;50.864;6.102;2024-01-27T05:05:36;-0.90;99.90
11093;DHT22;5600;50.864;6.102;2024-01-27T05:08:36;-0.90;99.90
11093;DHT22;5600;50.864;6.102;2024-01-27T05:11:37;-1.00;99.90
11093;DHT22;5600;50.864;6.102;2024-01-27T05:14:43;-1.00;99.90
11093;DHT22;5600;50.864;6.102;2024-01-27T05:17:45;-1.10;99.90
11093;DHT22;5600;50.864;6.102;2024-01-27T05:20:46;-1.10;99.90
11093;DHT22;5600;50.864;6.102;2024-01-27T05:23:47;-1.10;99.90
11093;DHT22;5600;50.864;6.102;2024-01-27T05:26:47;-1.10;99.90
11093;DHT22;5600;50.864;6.102;2024-01-27T05:29:48;-1.10;99.90
11093;DHT22;5600;50.864;6.102;2024-01-27T05:32:50;-1.10;99.90
11093;DHT22;5600;50.864;6.102;2024-01-27T05:35:50;-1.20;99.90
11093;DHT22;5600;50.864;6.102;2024-01-27T05:38:51;-1.20;99.90
11093;DHT22;5600;50.864;6.102;2024-01-27T05:41:52;-1.20;99.90
11093;DHT22;5600;50.864;6.102;2024-01-27T05:44:53;-1.20;99.90
11093;DHT22;5600;50.864;6.102;2024-01-27T05:47:53;-1.20;99.90
11093;DHT22;5600;50.864;6.102;2024-01-27T05:50:58;-1.30;99.90
11093;DHT22;5600;50.864;6.102;2024-01-27T05:53:59;-1.30;99.90
11093;DHT22;5600;50.864;6.102;2024-01-27T05:57:00;-1.30;99.90
11093;DHT22;5600;50.864;6.102;2024-01-27T06:00:01;-1.30;99.90
11093;DHT22;5600;50.864;6.102;2024-01-27T06:03:03;-1.30;99.90
11093;DHT22;5600;50.864;6.102;2024-01-27T06:06:03;-1.30;99.90
11093;DHT22;5600;50.864;6.102;2024-01-27T06:09:04;-1.30;99.90
11093;DHT22;5600;50.864;6.102;2024-01-27T06:12:05;-1.30;99.90
11093;DHT22;5600;50.864;6.102;2024-01-27T06:15:06;-1.30;99.90
11093;DHT22;5600;50.864;6.102;2024-01-27T06:18:09;-1.30;99.90
11093;DHT22;5600;50.864;6.102;2024-01-27T06:21:10;-1.30;99.90
11093;DHT22;5600;50.864;6.102;2024-01-27T06:24:11;-1.30;99.90
11093;DHT22;5600;50.864;6.102;2024-01-27T06:27:12;-1.30;99.90
11093;DHT22;5600;50.864;6.102;2024-01-27T06:30:13;-1.30;99.90
11093;DHT22;5600;50.864;6.102;2024-01-27T06:33:14;-1.30;99.90
11093;DHT22;5600;50.864;6.102;2024-01-27T06:36:15;-1.30;99.90
11093;DHT22;5600;50.864;6.102;2024-01-27T06:39:16;-1.30;99.90
11093;DHT22;5600;50.864;6.102;2024-01-27T06:42:17;-1.30;99.90
11093;DHT22;5600;50.864;6.102;2024-01-27T06:45:18;-1.40;99.90
11093;DHT22;5600;50.864;6.102;2024-01-27T06:48:18;-1.40;99.90
11093;DHT22;5600;50.864;6.102;2024-01-27T06:51:19;-1.40;99.90
11093;DHT22;5600;50.864;6.102;2024-01-27T06:54:20;-1.40;99.90
11093;DHT22;5600;50.864;6.102;2024-01-27T06:57:22;-1.40;99.90
11093;DHT22;5600;50.864;6.102;2024-01-27T07:00:23;-1.40;99.90
11093;DHT22;5600;50.864;6.102;2024-01-27T07:03:24;-1.40;99.90
11093;DHT22;5600;50.864;6.102;2024-01-27T07:06:24;-1.40;99.90
11093;DHT22;5600;50.864;6.102;2024-01-27T07:09:25;-1.50;99.90
11093;DHT22;5600;50.864;6.102;2024-01-27T07:12:26;-1.50;99.90
11093;DHT22;5600;50.864;6.102;2024-01-27T07:15:27;-1.50;99.90
11093;DHT22;5600;50.864;6.102;2024-01-27T07:18:28;-1.50;99.90
11093;DHT22;5600;50.864;6.102;2024-01-27T07:21:30;-1.50;99.90
11093;DHT22;5600;50.864;6.102;2024-01-27T07:24:31;-1.50;99.90
11093;DHT22;5600;50.864;6.102;2024-01-27T07:27:32;-1.50;99.90
11093;DHT22;5600;50.864;6.102;2024-01-27T07:30:33;-1.50;99.90
11093;DHT22;5600;50.864;6.102;2024-01-27T07:33:34;-1.50;99.90
11093;DHT22;5600;50.864;6.102;2024-01-27T07:36:34;-1.40;99.90
11093;DHT22;5600;50.864;6.102;2024-01-27T07:39:35;-1.40;99.90
11093;DHT22;5600;50.864;6.102;2024-01-27T07:42:36;-1.30;99.90
11093;DHT22;5600;50.864;6.102;2024-01-27T07:45:37;-1.30;99.90
11093;DHT22;5600;50.864;6.102;2024-01-27T07:48:37;-1.20;99.90
11093;DHT22;5600;50.864;6.102;2024-01-27T07:51:38;-1.10;99.90
11093;DHT22;5600;50.864;6.102;2024-01-27T07:54:39;-1.20;99.90
11093;DHT22;5600;50.864;6.102;2024-01-27T07:57:40;-1.10;99.90
11093;DHT22;5600;50.864;6.102;2024-01-27T08:00:41;-1.10;99.90
11093;DHT22;5600;50.864;6.102;2024-01-27T08:03:42;-1.00;99.90
11093;DHT22;5600;50.864;6.102;2024-01-27T08:06:50;-0.90;99.90
11093;DHT22;5600;50.864;6.102;2024-01-27T08:09:51;-0.80;99.90
11093;DHT22;5600;50.864;6.102;2024-01-27T08:12:52;-0.60;99.90
11093;DHT22;5600;50.864;6.102;2024-01-27T08:15:53;-0.50;99.90
11093;DHT22;5600;50.864;6.102;2024-01-27T08:18:53;-0.30;99.90
11093;DHT22;5600;50.864;6.102;2024-01-27T08:21:54;-0.10;99.90
11093;DHT22;5600;50.864;6.102;2024-01-27T08:24:55;0.10;99.90
11093;DHT22;5600;50.864;6.102;2024-01-27T08:27:56;0.40;99.90
11093;DHT22;5600;50.864;6.102;2024-01-27T08:30:56;0.60;99.90
11093;DHT22;5600;50.864;6.102;2024-01-27T08:34:00;1.00;99.90
11093;DHT22;5600;50.864;6.102;2024-01-27T08:37:01;1.40;99.90
11093;DHT22;5600;50.864;6.102;2024-01-27T08:40:03;1.90;99.90
11093;DHT22;5600;50.864;6.102;2024-01-27T08:43:04;2.30;99.90
11093;DHT22;5600;50.864;6.102;2024-01-27T08:46:06;2.70;99.90
11093;DHT22;5600;50.864;6.102;2024-01-27T08:49:11;3.20;99.90
11093;DHT22;5600;50.864;6.102;2024-01-27T08:52:12;3.80;99.90
11093;DHT22;5600;50.864;6.102;2024-01-27T08:55:13;4.10;99.90
11093;DHT22;5600;50.864;6.102;2024-01-27T08:58:13;4.60;99.90
11093;DHT22;5600;50.864;6.102;2024-01-27T09:01:16;5.50;99.90
11093;DHT22;5600;50.864;6.102;2024-01-27T09:04:16;5.50;99.90
11093;DHT22;5600;50.864;6.102;2024-01-27T09:07:17;5.90;99.90
11093;DHT22;5600;50.864;6.102;2024-01-27T09:10:18;6.60;99.90
11093;DHT22;5600;50.864;6.102;2024-01-27T09:13:19;7.20;99.90
11093;DHT22;5600;50.864;6.102;2024-01-27T09:16:20;7.80;99.90
11093;DHT22;5600;50.864;6.102;2024-01-27T09:19:21;8.30;99.90
11093;DHT22;5600;50.864;6.102;2024-01-27T09:22:22;8.80;99.90
11093;DHT22;5600;50.864;6.102;2024-01-27T09:25:23;9.10;99.90
11093;DHT22;5600;50.864;6.102;2024-01-27T09:28:25;9.10;99.90
11093;DHT22;5600;50.864;6.102;2024-01-27T09:31:26;9.00;99.90
11093;DHT22;5600;50.864;6.102;2024-01-27T09:34:27;9.00;99.90
11093;DHT22;5600;50.864;6.102;2024-01-27T09:37:28;8.80;99.90
11093;DHT22;5600;50.864;6.102;2024-01-27T09:40:29;8.70;99.90
11093;DHT22;5600;50.864;6.102;2024-01-27T09:43:31;8.80;99.90
11093;DHT22;5600;50.864;6.102;2024-01-27T09:46:32;8.80;99.90
11093;DHT22;5600;50.864;6.102;2024-01-27T09:49:33;8.60;99.90
11093;DHT22;5600;50.864;6.102;2024-01-27T09:52:34;8.50;99.90
11093;DHT22;5600;50.864;6.102;2024-01-27T09:55:35;8.50;99.90
11093;DHT22;5600;50.864;6.102;2024-01-27T09:58:37;8.40;99.90
11093;DHT22;5600;50.864;6.102;2024-01-27T10:01:38;7.70;99.90
11093;DHT22;5600;50.864;6.102;2024-01-27T10:04:41;7.70;99.90
11093;DHT22;5600;50.864;6.102;2024-01-27T10:07:42;7.30;99.90
11093;DHT22;5600;50.864;6.102;2024-01-27T10:10:43;7.10;99.90
11093;DHT22;5600;50.864;6.102;2024-01-27T10:13:43;6.90;99.90
11093;DHT22;5600;50.864;6.102;2024-01-27T10:16:45;6.70;99.90
11093;DHT22;5600;50.864;6.102;2024-01-27T10:19:46;6.50;99.90
11093;DHT22;5600;50.864;6.102;2024-01-27T10:22:47;6.50;99.90
11093;DHT22;5600;50.864;6.102;2024-01-27T10:25:49;6.50;99.90
11093;DHT22;5600;50.864;6.102;2024-01-27T10:28:56;6.70;99.90
11093;DHT22;5600;50.864;6.102;2024-01-27T10:32:10;7.10;99.90
11093;DHT22;5600;50.864;6.102;2024-01-27T10:35:11;7.60;99.90
11093;DHT22;5600;50.864;6.102;2024-01-27T10:38:12;7.90;99.90
11093;DHT22;5600;50.864;6.102;2024-01-27T10:44:21;8.40;99.90
11093;DHT22;5600;50.864;6.102;2024-01-27T10:47:22;8.60;99.90
11093;DHT22;5600;50.864;6.102;2024-01-27T10:50:24;8.90;99.90
11093;DHT22;5600;50.864;6.102;2024-01-27T10:53:25;9.00;99.90
11093;DHT22;5600;50.864;6.102;2024-01-27T10:56:29;9.10;99.90
11093;DHT22;5600;50.864;6.102;2024-01-27T10:59:32;9.10;99.90
11093;DHT22;5600;50.864;6.102;2024-01-27T11:02:34;9.20;99.90
11093;DHT22;5600;50.864;6.102;2024-01-27T11:05:35;9.10;99.90
11093;DHT22;5600;50.864;6.102;2024-01-27T11:08:38;9.10;99.90
11093;DHT22;5600;50.864;6.102;2024-01-27T11:11:41;9.00;99.90
11093;DHT22;5600;50.864;6.102;2024-01-27T11:14:43;9.00;99.90
11093;DHT22;5600;50.864;6.102;2024-01-27T11:17:45;9.00;99.90
11093;DHT22;5600;50.864;6.102;2024-01-27T11:20:47;9.00;99.90
11093;DHT22;5600;50.864;6.102;2024-01-27T11:23:48;9.00;99.90
11093;DHT22;5600;50.864;6.102;2024-01-27T11:27:03;9.00;99.90
11093;DHT22;5600;50.864;6.102;2024-01-27T11:30:04;9.00;99.90
11093;DHT22;5600;50.864;6.102;2024-01-27T11:33:05;9.00;99.90
11093;DHT22;5600;50.864;6.102;2024-01-27T11:36:06;9.00;99.90
11093;DHT22;5600;50.864;6.102;2024-01-27T11:39:26;9.00;99.90
11093;DHT22;5600;50.864;6.102;2024-01-27T11:42:27;9.00;99.90
11093;DHT22;5600;50.864;6.102;2024-01-27T11:45:28;9.10;99.90
11093;DHT22;5600;50.864;6.102;2024-01-27T11:48:33;9.10;99.90
11093;DHT22;5600;50.864;6.102;2024-01-27T11:51:34;6.10;99.90
11093;DHT22;5600;50.864;6.102;2024-01-27T11:54:35;9.20;99.90
11093;DHT22;5600;50.864;6.102;2024-01-27T11:57:38;9.20;99.90
11093;DHT22;5600;50.864;6.102;2024-01-27T12:00:39;9.20;99.90
11093;DHT22;5600;50.864;6.102;2024-01-27T12:03:40;9.40;99.90
11093;DHT22;5600;50.864;6.102;2024-01-27T12:06:41;9.60;99.90
11093;DHT22;5600;50.864;6.102;2024-01-27T12:09:44;9.80;99.90
11093;DHT22;5600;50.864;6.102;2024-01-27T12:12:45;9.70;99.90
11093;DHT22;5600;50.864;6.102;2024-01-27T12:15:46;9.50;99.90
11093;DHT22;5600;50.864;6.102;2024-01-27T12:18:52;9.40;99.90
11093;DHT22;5600;50.864;6.102;2024-01-27T12:21:53;9.50;99.90
11093;DHT22;5600;50.864;6.102;2024-01-27T12:24:55;9.40;99.90
11093;DHT22;5600;50.864;6.102;2024-01-27T12:27:56;10.20;99.90
11093;DHT22;5600;50.864;6.102;2024-01-27T12:31:04;9.60;99.90
11093;DHT22;5600;50.864;6.102;2024-01-27T12:34:05;9.70;99.90
11093;DHT22;5600;50.864;6.102;2024-01-27T12:37:10;9.80;99.90
11093;DHT22;5600;50.864;6.102;2024-01-27T12:40:18;9.80;99.90
11093;DHT22;5600;50.864;6.102;2024-01-27T12:43:19;9.90;99.90
11093;DHT22;5600;50.864;6.102;2024-01-27T12:46:20;9.80;99.90
11093;DHT22;5600;50.864;6.102;2024-01-27T12:49:21;9.90;99.90
11093;DHT22;5600;50.864;6.102;2024-01-27T12:52:22;10.00;99.90
11093;DHT22;5600;50.864;6.102;2024-01-27T12:55:25;9.90;99.90
11093;DHT22;5600;50.864;6.102;2024-01-27T12:58:26;9.80;99.90
11093;DHT22;5600;50.864;6.102;2024-01-27T13:01:26;9.70;99.90
11093;DHT22;5600;50.864;6.102;2024-01-27T13:04:27;9.70;99.90
11093;DHT22;5600;50.864;6.102;2024-01-27T13:07:28;9.60;99.90
11093;DHT22;5600;50.864;6.102;2024-01-27T13:10:29;9.50;99.90
11093;DHT22;5600;50.864;6.102;2024-01-27T13:13:30;9.40;99.90
11093;DHT22;5600;50.864;6.102;2024-01-27T13:16:31;9.40;99.90
11093;DHT22;5600;50.864;6.102;2024-01-27T13:19:31;9.30;99.90
11093;DHT22;5600;50.864;6.102;2024-01-27T13:22:32;9.20;99.90
11093;DHT22;5600;50.864;6.102;2024-01-27T13:25:33;9.20;99.90
11093;DHT22;5600;50.864;6.102;2024-01-27T13:28:34;9.20;99.90
11093;DHT22;5600;50.864;6.102;2024-01-27T13:31:35;9.00;99.90
11093;DHT22;5600;50.864;6.102;2024-01-27T13:34:35;9.00;99.90
11093;DHT22;5600;50.864;6.102;2024-01-27T13:37:37;9.00;99.90
11093;DHT22;5600;50.864;6.102;2024-01-27T13:40:37;9.00;99.90
11093;DHT22;5600;50.864;6.102;2024-01-27T13:43:38;8.90;99.90
11093;DHT22;5600;50.864;6.102;2024-01-27T13:46:39;8.90;99.90
11093;DHT22;5600;50.864;6.102;2024-01-27T13:49:40;8.80;99.90
11093;DHT22;5600;50.864;6.102;2024-01-27T13:52:40;8.70;99.90
11093;DHT22;5600;50.864;6.102;2024-01-27T13:55:43;8.80;99.90
11093;DHT22;5600;50.864;6.102;2024-01-27T13:58:45;8.70;99.90
11093;DHT22;5600;50.864;6.102;2024-01-27T14:01:47;8.60;99.90
11093;DHT22;5600;50.864;6.102;2024-01-27T14:04:48;8.60;99.90
11093;DHT22;5600;50.864;6.102;2024-01-27T14:07:49;8.50;99.90
11093;DHT22;5600;50.864;6.102;2024-01-27T14:10:49;8.40;99.90
11093;DHT22;5600;50.864;6.102;2024-01-27T14:13:53;8.60;99.90
11093;DHT22;5600;50.864;6.102;2024-01-27T14:16:53;8.60;99.90
11093;DHT22;5600;50.864;6.102;2024-01-27T14:19:54;8.70;99.90
11093;DHT22;5600;50.864;6.102;2024-01-27T14:22:55;8.60;99.90
11093;DHT22;5600;50.864;6.102;2024-01-27T14:25:58;8.50;99.90
11093;DHT22;5600;50.864;6.102;2024-01-27T14:28:59;8.50;99.90
11093;DHT22;5600;50.864;6.102;2024-01-27T14:32:00;8.50;99.90
11093;DHT22;5600;50.864;6.102;2024-01-27T14:35:01;8.50;99.90
11093;DHT22;5600;50.864;6.102;2024-01-27T14:38:06;8.50;99.90
11093;DHT22;5600;50.864;6.102;2024-01-27T14:41:09;8.50;99.90
11093;DHT22;5600;50.864;6.102;2024-01-27T14:44:12;8.40;99.90
11093;DHT22;5600;50.864;6.102;2024-01-27T14:47:12;8.30;99.90
11093;DHT22;5600;50.864;6.102;2024-01-27T14:50:13;8.30;99.90
11093;DHT22;5600;50.864;6.102;2024-01-27T14:53:15;8.30;99.90
11093;DHT22;5600;50.864;6.102;2024-01-27T14:56:15;8.30;99.90
11093;DHT22;5600;50.864;6.102;2024-01-27T14:59:16;8.30;99.90
11093;DHT22;5600;50.864;6.102;2024-01-27T15:02:17;8.20;99.90
11093;DHT22;5600;50.864;6.102;2024-01-27T15:05:18;8.10;99.90
11093;DHT22;5600;50.864;6.102;2024-01-27T15:08:20;8.10;99.90
11093;DHT22;5600;50.864;6.102;2024-01-27T15:11:21;8.00;99.90
11093;DHT22;5600;50.864;6.102;2024-01-27T15:14:22;8.00;99.90
11093;DHT22;5600;50.864;6.102;2024-01-27T15:17:23;7.90;99.90
11093;DHT22;5600;50.864;6.102;2024-01-27T15:20:24;7.90;99.90
11093;DHT22;5600;50.864;6.102;2024-01-27T15:23:25;7.80;99.90
11093;DHT22;5600;50.864;6.102;2024-01-27T15:26:27;7.70;99.90
11093;DHT22;5600;50.864;6.102;2024-01-27T15:29:28;7.50;99.90
11093;DHT22;5600;50.864;6.102;2024-01-27T15:32:29;7.40;99.90
11093;DHT22;5600;50.864;6.102;2024-01-27T15:35:30;7.30;99.90
11093;DHT22;5600;50.864;6.102;2024-01-27T15:38:33;7.20;99.90
11093;DHT22;5600;50.864;6.102;2024-01-27T15:41:34;7.00;99.90
11093;DHT22;5600;50.864;6.102;2024-01-27T15:44:35;7.00;99.90
11093;DHT22;5600;50.864;6.102;2024-01-27T15:47:36;6.90;99.90
11093;DHT22;5600;50.864;6.102;2024-01-27T15:50:36;6.70;99.90
11093;DHT22;5600;50.864;6.102;2024-01-27T15:53:37;6.60;99.90
11093;DHT22;5600;50.864;6.102;2024-01-27T15:56:38;6.40;99.90
11093;DHT22;5600;50.864;6.102;2024-01-27T15:59:39;6.30;99.90
11093;DHT22;5600;50.864;6.102;2024-01-27T16:02:40;6.20;99.90
11093;DHT22;5600;50.864;6.102;2024-01-27T16:05:41;6.10;99.90
11093;DHT22;5600;50.864;6.102;2024-01-27T16:08:41;5.90;99.90
11093;DHT22;5600;50.864;6.102;2024-01-27T16:11:42;5.70;99.90
11093;DHT22;5600;50.864;6.102;2024-01-27T16:14:43;5.70;99.90
11093;DHT22;5600;50.864;6.102;2024-01-27T16:17:43;6.90;99.90
11093;DHT22;5600;50.864;6.102;2024-01-27T16:20:44;5.50;99.90
11093;DHT22;5600;50.864;6.102;2024-01-27T16:23:50;5.50;99.90
11093;DHT22;5600;50.864;6.102;2024-01-27T16:26:50;5.30;99.90
11093;DHT22;5600;50.864;6.102;2024-01-27T16:29:51;5.20;99.90
11093;DHT22;5600;50.864;6.102;2024-01-27T16:32:52;5.10;99.90
11093;DHT22;5600;50.864;6.102;2024-01-27T16:35:52;4.90;99.90
11093;DHT22;5600;50.864;6.102;2024-01-27T16:38:54;4.80;99.90
11093;DHT22;5600;50.864;6.102;2024-01-27T16:41:55;4.70;99.90
11093;DHT22;5600;50.864;6.102;2024-01-27T16:44:55;4.60;99.90
11093;DHT22;5600;50.864;6.102;2024-01-27T16:47:56;4.50;99.90
11093;DHT22;5600;50.864;6.102;2024-01-27T16:50:57;4.40;99.90
11093;DHT22;5600;50.864;6.102;2024-01-27T16:53:57;4.30;99.90
11093;DHT22;5600;50.864;6.102;2024-01-27T16:56:58;4.30;99.90
11093;DHT22;5600;50.864;6.102;2024-01-27T16:59:59;4.20;99.90
11093;DHT22;5600;50.864;6.102;2024-01-27T17:03:00;4.10;99.90
11093;DHT22;5600;50.864;6.102;2024-01-27T17:06:01;4.00;99.90
11093;DHT22;5600;50.864;6.102;2024-01-27T17:09:01;3.90;99.90
11093;DHT22;5600;50.864;6.102;2024-01-27T17:12:02;3.70;99.90
11093;DHT22;5600;50.864;6.102;2024-01-27T17:15:06;3.60;99.90
11093;DHT22;5600;50.864;6.102;2024-01-27T17:18:07;3.50;99.90
11093;DHT22;5600;50.864;6.102;2024-01-27T17:21:09;3.40;99.90
11093;DHT22;5600;50.864;6.102;2024-01-27T17:24:10;3.30;99.90
11093;DHT22;5600;50.864;6.102;2024-01-27T17:27:10;3.20;99.90
11093;DHT22;5600;50.864;6.102;2024-01-27T17:30:12;3.10;99.90
11093;DHT22;5600;50.864;6.102;2024-01-27T17:33:14;3.00;99.90
11093;DHT22;5600;50.864;6.102;2024-01-27T17:36:14;3.00;99.90
11093;DHT22;5600;50.864;6.102;2024-01-27T17:39:15;2.90;99.90
11093;DHT22;5600;50.864;6.102;2024-01-27T17:42:17;2.80;99.90
11093;DHT22;5600;50.864;6.102;2024-01-27T17:45:18;2.80;99.90
11093;DHT22;5600;50.864;6.102;2024-01-27T17:48:18;2.70;99.90
11093;DHT22;5600;50.864;6.102;2024-01-27T17:51:19;2.70;99.90
11093;DHT22;5600;50.864;6.102;2024-01-27T17:54:21;2.60;99.90
11093;DHT22;5600;50.864;6.102;2024-01-27T17:57:21;2.60;99.90
11093;DHT22;5600;50.864;6.102;2024-01-27T18:00:22;2.60;99.90
11093;DHT22;5600;50.864;6.102;2024-01-27T18:03:23;2.50;99.90
11093;DHT22;5600;50.864;6.102;2024-01-27T18:06:24;2.50;99.90
11093;DHT22;5600;50.864;6.102;2024-01-27T18:09:25;2.40;99.90
11093;DHT22;5600;50.864;6.102;2024-01-27T18:12:26;2.40;99.90
11093;DHT22;5600;50.864;6.102;2024-01-27T18:15:26;2.30;99.90
11093;DHT22;5600;50.864;6.102;2024-01-27T18:18:27;2.30;99.90
11093;DHT22;5600;50.864;6.102;2024-01-27T18:21:28;2.20;99.90
11093;DHT22;5600;50.864;6.102;2024-01-27T18:24:30;2.20;99.90
11093;DHT22;5600;50.864;6.102;2024-01-27T18:27:31;2.10;99.90
11093;DHT22;5600;50.864;6.102;2024-01-27T18:30:32;2.00;99.90
11093;DHT22;5600;50.864;6.102;2024-01-27T18:33:33;2.00;99.90
11093;DHT22;5600;50.864;6.102;2024-01-27T18:36:33;2.00;99.90
11093;DHT22;5600;50.864;6.102;2024-01-27T18:39:34;1.90;99.90
11093;DHT22;5600;50.864;6.102;2024-01-27T18:42:35;2.00;99.90
11093;DHT22;5600;50.864;6.102;2024-01-27T18:45:36;0.60;99.90
11093;DHT22;5600;50.864;6.102;2024-01-27T18:48:37;1.90;99.90
11093;DHT22;5600;50.864;6.102;2024-01-27T18:51:38;2.00;99.90
11093;DHT22;5600;50.864;6.102;2024-01-27T18:54:39;2.00;99.90
11093;DHT22;5600;50.864;6.102;2024-01-27T18:57:39;2.10;99.90
11093;DHT22;5600;50.864;6.102;2024-01-27T19:00:40;2.30;99.90
11093;DHT22;5600;50.864;6.102;2024-01-27T19:03:41;2.30;99.90
11093;DHT22;5600;50.864;6.102;2024-01-27T19:06:42;2.30;99.90
11093;DHT22;5600;50.864;6.102;2024-01-27T19:09:43;2.20;99.90
11093;DHT22;5600;50.864;6.102;2024-01-27T19:12:44;2.10;99.90
11093;DHT22;5600;50.864;6.102;2024-01-27T19:15:45;2.00;99.90
11093;DHT22;5600;50.864;6.102;2024-01-27T19:18:47;2.00;99.90
11093;DHT22;5600;50.864;6.102;2024-01-27T19:21:47;1.90;99.90
11093;DHT22;5600;50.864;6.102;2024-01-27T19:24:48;1.80;99.90
11093;DHT22;5600;50.864;6.102;2024-01-27T19:27:49;1.80;99.90
11093;DHT22;5600;50.864;6.102;2024-01-27T19:30:49;1.70;99.90
11093;DHT22;5600;50.864;6.102;2024-01-27T19:33:50;0.90;99.90
11093;DHT22;5600;50.864;6.102;2024-01-27T19:36:51;1.60;99.90
11093;DHT22;5600;50.864;6.102;2024-01-27T19:39:52;1.60;99.90